CYFBCYRT

Guest
Details From CYFB - Iqaluit
To CYRT - RANKIN INLET
Flight Number -
Tags generated
Created
Modified
Stats Distance 648 nm / 1,199 km
Max Altitude 0 ft / 0 m
Waypoints 6
Social Downloads 0
Likes 0
Share VATSIM

Download

Looking for another format? Having issues loading an existing format? Contact us
Advertisement - Login to hide

Notes

None

Route

CYFB YFB J540 YZS NCAW N6250 CYRT

ID Type Via Altitude Latitude Longitude Leg Dist Tot Dist Heading (true) Name
O CYFB APT - 0 ft / 0 m 63.75657˚ -68.55606˚ - 0 nm - Iqaluit
YFB VOR - 0 ft / 0 m 63.74167˚ -68.47333˚ 2 nm 2 nm 112° / 112° FROBAY VOR
YTE NDB J540 (AWY-HI) 0 ft / 0 m 64.22861˚ -76.52806˚ 214 nm 216 nm 281° / 274° CAPE DORSET NDB
YZS NDB J540 (AWY-HI) 0 ft / 0 m 64.14850˚ -83.30475˚ 177 nm 393 nm 271° / 265° CORAL HARBOUR NDB
N6250 FIX NCAW (AWY-HI) 0 ft / 0 m 62.83333˚ -90.00000˚ 195 nm 589 nm 249° / 243° -
O CYRT APT - 0 ft / 0 m 62.81139˚ -92.11584˚ 58 nm 647 nm 270° / 268° RANKIN INLET

Altitude Profile

Advertisement - Login to hide

Weather


0- 5 10 15 20 25 30 35+ Temperature / ° C

Clouds and Precipitation
Forecast for 2018-05-25 12:00 UTC. Updated 6 hours ago

Ground ~20,000 ft ~40,000 ft Winds

CYFB

Details ICAO CYFB (YFB)
Name Iqaluit
Region Canada
Timezone America/Iqaluit (UTC-4.0)
Stats Elevation 110 ft / 34 m (AMSL)
Location 63.756565° -68.556058°
Runways 1
Magnetic Variation 27.371° W

METAR

CYFB 251700Z 33013KT 30SM FEW021 OVC042 M02/M07 A2981 RMK SC2SC6 SLP098

Decode

TAF

TAF TAF CYFB 251138Z 2512/2612 03010KT P6SM OVC040 TEMPO 2512/2518 33010KT P6SM -SN FM251800 33015KT P6SM OVC040 TEMPO 2518/2612 P6SM -SN OVC020 RMK NXT FCST BY 251800Z

Decode

Departure Runways

ID Width Length Bearing (true) Bearing (mag) Surface Threshold Offset Overrun Length
17 200 ft / 61 m 8,605 ft / 2,623 m 135.58° 162.95° Asphalt 0 ft / 0 m 210 ft / 64 m
35 200 ft / 61 m 8,605 ft / 2,623 m 315.62° 342.99° Asphalt 0 ft / 0 m 243 ft / 74 m

CYRT

Details ICAO CYRT (YRT)
Name RANKIN INLET
Region Canada
Timezone America/Rankin_Inlet (UTC-5.0)
Stats Elevation 94 ft / 29 m (AMSL)
Location 62.811388° -92.115836°
Runways 1
Magnetic Variation 6.800° W

METAR

CYRT 251700Z 06006KT 15SM BKN015 M04/M07 A3021 RMK SC7 SLP236

Decode

TAF

TAF CYRT 251138Z 2512/2524 04008KT P6SM BKN020 TEMPO 2512/2518 SCT020 FM251800 14008KT P6SM SCT020 RMK NXT FCST BY 251800Z

Decode

Destination Runways

ID Width Length Bearing (true) Bearing (mag) Surface Threshold Offset Overrun Length
13T 150 ft / 46 m 5,982 ft / 1,823 m 129.03° 135.83° Asphalt 0 ft / 0 m 0 ft / 0 m
31T 150 ft / 46 m 5,982 ft / 1,823 m 309.05° 315.85° Asphalt 0 ft / 0 m 0 ft / 0 m

Popular Alternatives